createdAt,value
2019-03-05T00:00:49.930Z,8.53
2019-03-05T00:03:19.455Z,7.10
2019-03-05T00:05:48.827Z,7.90
2019-03-05T00:08:18.209Z,11.60
2019-03-05T00:10:47.525Z,9.03
2019-03-05T00:13:16.896Z,8.97
2019-03-05T00:15:47.314Z,9.50
2019-03-05T00:18:16.595Z,8.00
2019-03-05T00:20:45.997Z,11.73
2019-03-05T00:23:17.543Z,7.07
2019-03-05T00:25:46.879Z,9.57
2019-03-05T00:28:46.098Z,7.97
2019-03-05T00:31:24.014Z,14.47
2019-03-05T00:34:18.558Z,16.83
2019-03-05T00:37:11.403Z,7.80
2019-03-05T00:40:20.554Z,5.42
2019-03-05T00:43:19.654Z,8.83
2019-03-05T00:46:42.258Z,7.22
2019-03-05T00:49:48.484Z,15.93
2019-03-05T00:52:29.998Z,15.67
2019-03-05T00:55:13.855Z,6.47
2019-03-05T00:58:10.089Z,8.93
2019-03-05T01:00:56.592Z,11.90
2019-03-05T01:03:56.062Z,7.87
2019-03-05T01:06:25.775Z,7.07
2019-03-05T01:08:56.516Z,12.87
2019-03-05T01:11:26.296Z,4.90
2019-03-05T01:13:55.750Z,5.60
2019-03-05T01:16:31.131Z,16.37
2019-03-05T01:19:00.443Z,12.77
2019-03-05T01:21:29.768Z,16.82
2019-03-05T01:23:59.067Z,11.20
2019-03-05T01:26:28.415Z,11.67
2019-03-05T01:28:57.747Z,9.65
2019-03-05T01:31:40.362Z,5.80
2019-03-05T01:34:27.346Z,9.77
2019-03-05T01:36:59.157Z,12.83
2019-03-05T01:39:39.219Z,16.37
2019-03-05T01:42:08.551Z,12.00
2019-03-05T01:44:37.877Z,8.57
2019-03-05T01:47:07.369Z,13.77
2019-03-05T01:49:36.660Z,10.08
2019-03-05T01:52:05.983Z,9.37
2019-03-05T01:54:35.340Z,12.00
2019-03-05T01:57:04.691Z,5.83
2019-03-05T01:59:33.997Z,11.47
2019-03-05T02:02:03.306Z,16.63
2019-03-05T02:04:32.591Z,20.80
2019-03-05T02:07:01.943Z,14.40
2019-03-05T02:09:31.259Z,16.00
2019-03-05T02:12:00.615Z,18.17
2019-03-05T02:14:29.936Z,17.47
2019-03-05T02:16:59.257Z,25.20
2019-03-05T02:19:56.641Z,29.03
2019-03-05T02:22:34.770Z,24.10
2019-03-05T02:25:20.062Z,18.60
2019-03-05T02:28:22.580Z,14.13
2019-03-05T02:31:03.973Z,17.60
2019-03-05T02:34:11.054Z,12.77
2019-03-05T02:37:08.565Z,15.07
2019-03-05T02:40:04.308Z,10.73
2019-03-05T02:42:58.986Z,22.50
2019-03-05T02:45:50.653Z,18.17
2019-03-05T02:49:10.158Z,19.03
2019-03-05T02:52:12.783Z,10.77
2019-03-05T02:55:47.456Z,17.67
2019-03-05T02:58:14.978Z,6.23
2019-03-05T03:01:12.529Z,16.03
2019-03-05T03:03:44.914Z,9.60
2019-03-05T03:06:23.622Z,9.90
2019-03-05T03:09:14.805Z,16.43
2019-03-05T03:11:44.107Z,10.73
2019-03-05T03:14:13.741Z,8.77
2019-03-05T03:16:43.106Z,12.53
2019-03-05T03:19:12.435Z,8.07
2019-03-05T03:21:41.788Z,11.07
2019-03-05T03:24:11.192Z,12.27
2019-03-05T03:26:40.500Z,5.93
2019-03-05T03:29:09.822Z,6.93
2019-03-05T03:31:39.151Z,5.33
2019-03-05T03:34:08.463Z,3.43
2019-03-05T03:36:37.778Z,13.48
2019-03-05T03:39:07.241Z,7.40
2019-03-05T03:41:36.579Z,14.77
2019-03-05T03:44:05.910Z,16.27
2019-03-05T03:46:35.218Z,8.43
2019-03-05T03:49:04.525Z,12.27
2019-03-05T03:51:33.836Z,13.90
2019-03-05T03:54:03.136Z,14.37
2019-03-05T03:56:32.460Z,15.57
2019-03-05T03:59:01.788Z,13.27
2019-03-05T04:01:31.134Z,22.43
2019-03-05T04:04:00.471Z,16.57
2019-03-05T04:06:29.769Z,17.83
2019-03-05T04:08:59.080Z,22.73
2019-03-05T04:11:28.428Z,17.63
2019-03-05T04:13:59.675Z,18.10
2019-03-05T04:16:28.830Z,16.37
2019-03-05T04:19:00.055Z,19.67
2019-03-05T04:21:29.347Z,17.47
2019-03-05T04:23:58.677Z,21.27
2019-03-05T04:26:27.945Z,22.13
2019-03-05T04:28:57.251Z,27.77
2019-03-05T04:31:26.580Z,20.27
2019-03-05T04:33:55.887Z,21.93
2019-03-05T04:36:25.228Z,23.23
2019-03-05T04:38:54.535Z,18.97
2019-03-05T04:41:23.809Z,31.67
2019-03-05T04:43:53.122Z,20.83
2019-03-05T04:46:35.675Z,25.77
2019-03-05T04:49:26.607Z,13.33
2019-03-05T04:52:08.503Z,20.93
2019-03-05T04:54:37.827Z,16.17
2019-03-05T04:57:07.160Z,20.63
2019-03-05T04:59:36.564Z,16.80
2019-03-05T05:02:05.904Z,12.03
2019-03-05T05:04:35.236Z,17.40
2019-03-05T05:07:04.582Z,10.93
2019-03-05T05:09:33.884Z,15.30
2019-03-05T05:12:03.197Z,13.17
2019-03-05T05:14:32.512Z,15.17
2019-03-05T05:17:01.873Z,14.87
2019-03-05T05:19:31.190Z,15.07
2019-03-05T05:22:00.489Z,10.87
2019-03-05T05:24:29.813Z,13.70
2019-03-05T05:26:59.186Z,12.70
2019-03-05T05:29:28.593Z,13.50
2019-03-05T05:31:58.487Z,10.97
2019-03-05T05:34:27.981Z,18.67
2019-03-05T05:36:57.312Z,14.30
2019-03-05T05:40:04.732Z,15.93
2019-03-05T05:42:33.287Z,15.57
2019-03-05T05:45:02.594Z,12.83
2019-03-05T05:47:31.957Z,18.73
2019-03-05T05:50:01.291Z,11.57
2019-03-05T05:52:30.632Z,12.20
2019-03-05T05:54:59.994Z,15.57
2019-03-05T05:57:29.310Z,11.00
2019-03-05T05:59:58.621Z,11.07
2019-03-05T06:02:27.896Z,13.83
2019-03-05T06:04:57.222Z,19.50
2019-03-05T06:07:26.503Z,25.27
2019-03-05T06:09:55.824Z,30.97
2019-03-05T06:12:25.155Z,28.07
2019-03-05T06:14:54.466Z,17.80
2019-03-05T06:17:23.830Z,27.17
2019-03-05T06:19:53.151Z,20.60
2019-03-05T06:22:22.521Z,36.47
2019-03-05T06:24:51.945Z,18.63
2019-03-05T06:27:21.291Z,17.93
2019-03-05T06:29:50.609Z,22.07
2019-03-05T06:32:19.897Z,22.27
2019-03-05T06:34:49.251Z,12.03
2019-03-05T06:37:18.565Z,14.70
2019-03-05T06:39:47.887Z,13.10
2019-03-05T06:42:17.216Z,11.03
2019-03-05T06:44:46.567Z,14.50
2019-03-05T06:47:15.918Z,10.70
2019-03-05T06:49:45.236Z,14.20
2019-03-05T06:52:14.547Z,14.53
2019-03-05T06:54:43.848Z,15.57
2019-03-05T06:57:13.156Z,12.03
2019-03-05T06:59:42.611Z,6.53
2019-03-05T07:02:11.913Z,12.07
2019-03-05T07:04:42.891Z,16.77
2019-03-05T07:07:13.399Z,15.50
2019-03-05T07:10:24.789Z,17.83
2019-03-05T07:13:02.848Z,13.50
2019-03-05T07:16:24.237Z,16.10
2019-03-05T07:19:16.962Z,16.43
2019-03-05T07:22:18.291Z,10.75
2019-03-05T07:24:51.377Z,11.73
2019-03-05T07:27:37.902Z,14.87
2019-03-05T07:30:14.259Z,17.30
2019-03-05T07:32:43.639Z,11.67
2019-03-05T07:35:15.163Z,15.05
2019-03-05T07:37:44.591Z,11.50
2019-03-05T07:40:13.901Z,16.43
2019-03-05T07:42:43.239Z,12.03
2019-03-05T07:45:12.668Z,17.03
2019-03-05T07:47:42.002Z,22.97
2019-03-05T07:50:11.599Z,18.30
2019-03-05T07:52:40.932Z,12.93
2019-03-05T07:55:14.060Z,23.00
2019-03-05T07:57:43.659Z,29.27
2019-03-05T08:00:15.604Z,14.37
2019-03-05T08:02:45.068Z,25.83
2019-03-05T08:05:15.005Z,19.63
2019-03-05T08:07:44.667Z,11.73
2019-03-05T08:10:31.794Z,16.20
2019-03-05T08:13:46.882Z,13.27
2019-03-05T08:16:28.765Z,12.00
2019-03-05T08:18:59.906Z,16.93
2019-03-05T08:21:29.353Z,13.03
2019-03-05T08:23:58.911Z,10.00
2019-03-05T08:26:30.825Z,19.03
2019-03-05T08:29:02.821Z,17.43
2019-03-05T08:31:31.712Z,20.00
2019-03-05T08:34:01.370Z,10.43
2019-03-05T08:36:30.691Z,17.03
2019-03-05T08:39:00.038Z,16.10
2019-03-05T08:41:29.492Z,11.70
2019-03-05T08:43:58.782Z,15.57
2019-03-05T08:46:28.102Z,13.17
2019-03-05T08:48:57.427Z,12.33
2019-03-05T08:51:26.959Z,13.57
2019-03-05T08:53:56.248Z,16.67
2019-03-05T08:56:25.775Z,19.00
2019-03-05T08:58:55.136Z,19.63
2019-03-05T09:01:24.453Z,11.60
2019-03-05T09:03:53.833Z,14.43
2019-03-05T09:06:23.274Z,19.00
2019-03-05T09:08:52.628Z,12.80
2019-03-05T09:11:22.511Z,10.43
2019-03-05T09:13:51.823Z,13.80
2019-03-05T09:16:21.138Z,18.40
2019-03-05T09:18:50.437Z,15.70
2019-03-05T09:21:19.780Z,16.47
2019-03-05T09:23:49.205Z,18.87
2019-03-05T09:26:18.535Z,24.47
2019-03-05T09:28:48.013Z,16.83
2019-03-05T09:31:17.292Z,17.10
2019-03-05T09:33:46.662Z,8.67
2019-03-05T09:36:15.990Z,14.53
2019-03-05T09:38:45.278Z,16.57
2019-03-05T09:41:14.642Z,13.23
2019-03-05T09:43:43.972Z,13.10
2019-03-05T09:46:13.282Z,16.60
2019-03-05T09:48:42.885Z,13.80
2019-03-05T09:51:12.215Z,15.10
2019-03-05T09:53:41.683Z,11.53
2019-03-05T09:56:16.103Z,11.27
2019-03-05T09:58:48.298Z,13.00
2019-03-05T10:01:22.022Z,14.80
2019-03-05T10:03:52.058Z,9.87
2019-03-05T10:06:41.040Z,16.17
2019-03-05T10:09:18.131Z,17.53
2019-03-05T10:11:56.281Z,12.37
2019-03-05T10:14:21.001Z,11.17
2019-03-05T10:16:52.964Z,16.33
2019-03-05T10:19:22.385Z,18.13
2019-03-05T10:21:52.152Z,15.00
2019-03-05T10:24:21.505Z,23.13
2019-03-05T10:26:50.984Z,19.33
2019-03-05T10:29:22.218Z,11.20
2019-03-05T10:31:52.451Z,13.60
2019-03-05T10:34:22.753Z,18.43
2019-03-05T10:36:56.124Z,22.27
2019-03-05T10:39:30.978Z,21.87
2019-03-05T10:41:59.056Z,20.80
2019-03-05T10:44:32.128Z,20.13
2019-03-05T10:47:01.721Z,16.90
2019-03-05T10:49:31.292Z,12.70
2019-03-05T10:52:01.348Z,12.63
2019-03-05T10:54:34.978Z,17.73
2019-03-05T10:57:05.091Z,26.17
2019-03-05T10:59:44.112Z,22.97
2019-03-05T11:02:17.692Z,21.70
2019-03-05T11:04:48.005Z,20.03
2019-03-05T11:07:20.961Z,11.67
2019-03-05T11:09:55.656Z,12.53
2019-03-05T11:12:25.703Z,22.57
2019-03-05T11:14:58.659Z,13.17
2019-03-05T11:17:28.834Z,18.30
2019-03-05T11:20:07.750Z,19.67
2019-03-05T11:22:41.093Z,19.17
2019-03-05T11:25:11.547Z,33.07
2019-03-05T11:27:41.352Z,30.30
2019-03-05T11:30:17.244Z,10.53
2019-03-05T11:32:51.453Z,18.00
2019-03-05T11:35:30.748Z,19.53
2019-03-05T11:38:05.585Z,21.33
2019-03-05T11:40:36.531Z,12.30
2019-03-05T11:43:17.332Z,18.27
2019-03-05T11:46:06.170Z,15.17
2019-03-05T11:48:35.520Z,19.80
2019-03-05T11:51:04.970Z,12.53
2019-03-05T11:53:34.329Z,22.83
2019-03-05T11:56:03.672Z,19.30
2019-03-05T11:58:36.224Z,15.37
2019-03-05T12:01:35.582Z,14.47
2019-03-05T12:04:08.272Z,13.40
2019-03-05T12:06:37.618Z,16.73
2019-03-05T12:09:08.093Z,19.73
2019-03-05T12:11:37.450Z,17.57
2019-03-05T12:14:06.797Z,14.43
2019-03-05T12:16:36.118Z,24.50
2019-03-05T12:19:05.502Z,9.30
2019-03-05T12:21:34.891Z,8.40
2019-03-05T12:24:04.201Z,12.17
2019-03-05T12:26:33.579Z,13.60
2019-03-05T12:29:02.915Z,17.23
2019-03-05T12:31:32.320Z,20.47
2019-03-05T12:34:01.791Z,27.37
2019-03-05T12:36:31.092Z,15.03
2019-03-05T12:39:00.435Z,20.37
2019-03-05T12:41:29.768Z,17.93
2019-03-05T12:43:59.082Z,7.57
2019-03-05T12:46:28.369Z,9.20
2019-03-05T12:48:57.714Z,9.33
2019-03-05T12:51:27.044Z,7.13
2019-03-05T12:53:56.361Z,6.73
2019-03-05T12:56:25.678Z,10.97
2019-03-05T12:58:55.016Z,10.03
2019-03-05T13:01:24.436Z,6.73
2019-03-05T13:03:53.815Z,10.83
2019-03-05T13:06:23.187Z,7.10
2019-03-05T13:08:52.557Z,7.43
2019-03-05T13:11:22.063Z,5.67
2019-03-05T13:14:05.433Z,3.93
2019-03-05T13:16:22.470Z,4.37
2019-03-05T13:18:51.836Z,8.40
2019-03-05T13:21:21.169Z,6.33
2019-03-05T13:23:51.632Z,7.20
2019-03-05T13:26:21.041Z,6.10
2019-03-05T13:28:50.414Z,9.63
2019-03-05T13:31:19.740Z,7.47
2019-03-05T13:33:49.120Z,8.20
2019-03-05T13:36:18.422Z,5.93
2019-03-05T13:38:50.467Z,9.27
2019-03-05T13:41:19.855Z,4.43
2019-03-05T13:43:52.097Z,8.13
2019-03-05T13:46:21.982Z,6.97
2019-03-05T13:49:21.658Z,5.10
2019-03-05T13:52:21.403Z,10.07
2019-03-05T13:55:16.730Z,9.83
2019-03-05T13:58:42.205Z,11.10
2019-03-05T14:01:12.964Z,10.40
2019-03-05T14:04:07.451Z,8.07
2019-03-05T14:07:13.833Z,8.03
2019-03-05T14:09:41.600Z,11.47
2019-03-05T14:12:10.901Z,9.40
2019-03-05T14:14:40.289Z,6.70
2019-03-05T14:17:29.264Z,7.17
2019-03-05T14:19:58.712Z,6.17
2019-03-05T14:22:28.011Z,11.27
2019-03-05T14:25:02.037Z,4.27
2019-03-05T14:27:28.432Z,5.07
2019-03-05T14:29:57.784Z,10.73
2019-03-05T14:32:27.154Z,7.47
2019-03-05T14:35:02.036Z,6.87
2019-03-05T14:37:32.948Z,4.00
2019-03-05T14:40:22.798Z,6.93
2019-03-05T14:42:34.470Z,7.27
2019-03-05T14:45:04.382Z,6.67
2019-03-05T14:47:33.798Z,8.43
2019-03-05T14:50:03.076Z,9.80
2019-03-05T14:52:32.424Z,7.40
2019-03-05T14:55:01.879Z,6.70
2019-03-05T14:57:31.351Z,6.17
2019-03-05T15:00:00.926Z,6.80
2019-03-05T15:02:30.272Z,5.33
2019-03-05T15:04:59.769Z,8.17
2019-03-05T15:07:29.228Z,7.77
2019-03-05T15:09:58.671Z,3.10
2019-03-05T15:12:28.022Z,4.00
2019-03-05T15:14:57.374Z,8.97
2019-03-05T15:17:26.688Z,6.80
2019-03-05T15:19:56.008Z,5.90
2019-03-05T15:22:25.394Z,7.33
2019-03-05T15:24:57.733Z,7.43
2019-03-05T15:27:27.180Z,6.07
2019-03-05T15:29:56.511Z,7.33
2019-03-05T15:32:25.835Z,7.40
2019-03-05T15:34:55.220Z,8.03
2019-03-05T15:37:24.591Z,7.10
2019-03-05T15:39:54.005Z,5.37
2019-03-05T15:42:23.319Z,4.70
2019-03-05T15:44:52.647Z,3.60
2019-03-05T15:47:22.022Z,4.10
2019-03-05T15:49:51.358Z,2.77
2019-03-05T15:52:20.715Z,7.50
2019-03-05T15:54:50.019Z,5.23
2019-03-05T15:57:26.030Z,6.30
2019-03-05T15:59:50.444Z,4.43
2019-03-05T16:02:19.931Z,5.33
2019-03-05T16:04:49.242Z,5.27
2019-03-05T16:07:18.675Z,10.63
2019-03-05T16:09:48.024Z,6.77
2019-03-05T16:12:17.338Z,4.93
2019-03-05T16:14:47.577Z,4.73
2019-03-05T16:17:18.644Z,7.73
2019-03-05T16:19:49.080Z,3.77
2019-03-05T16:22:19.357Z,6.40
2019-03-05T16:24:48.822Z,6.80
2019-03-05T16:27:18.142Z,8.97
2019-03-05T16:29:47.520Z,5.83
2019-03-05T16:32:26.893Z,5.77
2019-03-05T16:35:23.596Z,6.23
2019-03-05T16:38:08.157Z,7.20
2019-03-05T16:40:55.169Z,8.73
2019-03-05T16:43:31.474Z,7.17
2019-03-05T16:46:18.644Z,5.63
2019-03-05T16:48:54.976Z,5.37
2019-03-05T16:51:43.315Z,6.00
2019-03-05T16:54:24.378Z,3.67
2019-03-05T16:57:04.484Z,5.50
2019-03-05T16:59:55.145Z,7.23
2019-03-05T17:02:53.519Z,7.20
2019-03-05T17:05:55.761Z,9.37
2019-03-05T17:08:39.222Z,11.07
2019-03-05T17:11:30.349Z,10.17
2019-03-05T17:13:59.896Z,14.10
2019-03-05T17:16:29.209Z,19.33
2019-03-05T17:18:58.656Z,22.30
2019-03-05T17:21:28.153Z,25.80
2019-03-05T17:23:57.624Z,21.60
2019-03-05T17:26:26.961Z,19.33
2019-03-05T17:28:56.464Z,21.40
2019-03-05T17:31:25.909Z,21.07
2019-03-05T17:33:55.334Z,16.07
2019-03-05T17:36:24.996Z,19.37
2019-03-05T17:38:54.629Z,14.80
2019-03-05T17:41:23.990Z,16.30
2019-03-05T17:43:53.368Z,18.63
2019-03-05T17:46:22.691Z,18.73
2019-03-05T17:48:52.062Z,13.30
2019-03-05T17:51:21.372Z,18.30
2019-03-05T17:53:50.745Z,13.73
2019-03-05T17:56:20.143Z,15.73
2019-03-05T17:58:49.503Z,12.07
2019-03-05T18:01:18.873Z,12.20
2019-03-05T18:03:48.202Z,8.83
2019-03-05T18:06:26.842Z,10.63
2019-03-05T18:08:56.191Z,12.40
2019-03-05T18:11:25.761Z,15.37
2019-03-05T18:13:55.072Z,13.80
2019-03-05T18:16:24.591Z,16.47
2019-03-05T18:18:53.907Z,13.97
2019-03-05T18:21:23.279Z,14.33
2019-03-05T18:23:54.043Z,17.97
2019-03-05T18:26:23.474Z,10.77
2019-03-05T18:28:52.925Z,10.63
2019-03-05T18:31:22.345Z,12.80
2019-03-05T18:33:51.861Z,18.13
2019-03-05T18:36:21.612Z,22.70
2019-03-05T18:38:51.027Z,10.40
2019-03-05T18:41:20.541Z,11.13
2019-03-05T18:43:49.906Z,9.43
2019-03-05T18:46:19.292Z,11.50
2019-03-05T18:48:48.740Z,12.77
2019-03-05T18:51:18.181Z,12.30
2019-03-05T18:53:47.493Z,12.30
2019-03-05T18:56:16.801Z,8.37
2019-03-05T18:58:46.161Z,9.47
2019-03-05T19:01:15.529Z,8.97
2019-03-05T19:03:44.954Z,6.47
2019-03-05T19:06:14.343Z,6.70
2019-03-05T19:08:43.661Z,11.10
2019-03-05T19:11:13.082Z,7.40
2019-03-05T19:13:42.441Z,9.70
2019-03-05T19:16:11.939Z,5.37
2019-03-05T19:18:41.391Z,11.60
2019-03-05T19:21:11.059Z,12.60
2019-03-05T19:23:40.716Z,11.93
2019-03-05T19:26:11.972Z,11.43
2019-03-05T19:28:41.415Z,7.43
2019-03-05T19:31:10.831Z,6.63
2019-03-05T19:33:40.388Z,13.23
2019-03-05T19:36:09.781Z,10.63
2019-03-05T19:38:39.092Z,6.47
2019-03-05T19:41:08.648Z,5.00
2019-03-05T19:43:37.958Z,11.07
2019-03-05T19:46:07.312Z,7.77
2019-03-05T19:48:37.142Z,7.80
2019-03-05T19:51:06.509Z,10.93
2019-03-05T19:53:35.891Z,11.53
2019-03-05T19:56:05.286Z,10.03
2019-03-05T19:58:34.849Z,12.80
2019-03-05T20:01:10.140Z,10.63
2019-03-05T20:03:39.478Z,15.77
2019-03-05T20:06:08.812Z,10.67
2019-03-05T20:08:40.191Z,11.30
2019-03-05T20:11:09.207Z,9.70
2019-03-05T20:13:39.097Z,13.80
2019-03-05T20:16:08.961Z,17.63
2019-03-05T20:18:38.344Z,13.33
2019-03-05T20:21:08.051Z,10.07
2019-03-05T20:23:37.366Z,8.97
2019-03-05T20:26:06.696Z,15.23
2019-03-05T20:28:36.049Z,6.60
2019-03-05T20:31:05.608Z,7.80
2019-03-05T20:33:35.110Z,7.17
2019-03-05T20:36:04.536Z,5.37
2019-03-05T20:38:33.864Z,4.43
2019-03-05T20:41:03.202Z,6.50
2019-03-05T20:43:32.503Z,6.20
2019-03-05T20:46:06.747Z,3.33
2019-03-05T20:48:36.065Z,2.33
2019-03-05T20:51:05.366Z,0.80
2019-03-05T20:53:34.713Z,2.60
2019-03-05T20:56:04.037Z,3.67
2019-03-05T20:58:33.358Z,1.17
2019-03-05T21:01:03.564Z,2.73
2019-03-05T21:03:32.883Z,1.77
2019-03-05T21:06:02.219Z,1.03
2019-03-05T21:08:31.556Z,1.27
2019-03-05T21:11:00.867Z,1.90
2019-03-05T21:13:30.221Z,3.73
2019-03-05T21:15:59.559Z,3.00
2019-03-05T21:18:28.863Z,3.93
2019-03-05T21:20:58.204Z,4.30
2019-03-05T21:23:27.533Z,3.90
2019-03-05T21:25:56.907Z,3.37
2019-03-05T21:28:26.261Z,5.50
2019-03-05T21:30:55.579Z,4.93
2019-03-05T21:33:25.087Z,7.13
2019-03-05T21:35:54.413Z,4.20
2019-03-05T21:38:23.747Z,3.73
2019-03-05T21:40:53.083Z,3.93
2019-03-05T21:43:22.412Z,4.63
2019-03-05T21:45:52.210Z,7.30
2019-03-05T21:48:21.579Z,4.47
2019-03-05T21:50:50.889Z,4.30
2019-03-05T21:53:20.220Z,5.70
2019-03-05T21:55:49.552Z,5.13
2019-03-05T21:58:19.389Z,3.63
2019-03-05T22:00:48.691Z,7.07
2019-03-05T22:03:18.016Z,4.03
2019-03-05T22:05:47.315Z,7.30
2019-03-05T22:08:16.690Z,9.37
2019-03-05T22:10:47.442Z,7.00
2019-03-05T22:13:16.750Z,5.90
2019-03-05T22:15:46.211Z,8.97
2019-03-05T22:18:15.517Z,10.00
2019-03-05T22:20:45.110Z,7.27
2019-03-05T22:23:14.456Z,6.03
2019-03-05T22:25:43.808Z,10.93
2019-03-05T22:28:13.140Z,4.43
2019-03-05T22:30:42.441Z,8.27
2019-03-05T22:33:11.956Z,4.90
2019-03-05T22:35:41.325Z,7.67
2019-03-05T22:38:10.669Z,6.00
2019-03-05T22:40:40.030Z,8.97
2019-03-05T22:43:09.367Z,3.40
2019-03-05T22:45:38.710Z,4.40
2019-03-05T22:48:08.023Z,4.77
2019-03-05T22:50:37.358Z,4.93
2019-03-05T22:53:06.665Z,6.60
2019-03-05T22:55:36.013Z,7.50
2019-03-05T22:58:05.345Z,9.97
2019-03-05T23:01:10.888Z,5.83
2019-03-05T23:03:43.675Z,6.40
2019-03-05T23:06:13.211Z,10.03
2019-03-05T23:08:42.564Z,11.60
2019-03-05T23:11:11.893Z,10.27
2019-03-05T23:13:41.794Z,5.33
2019-03-05T23:16:11.210Z,6.37
2019-03-05T23:18:40.567Z,7.87
2019-03-05T23:21:10.842Z,5.57
2019-03-05T23:23:40.197Z,5.03
2019-03-05T23:26:09.684Z,4.43
2019-03-05T23:28:39.110Z,3.10
2019-03-05T23:31:09.897Z,7.93
2019-03-05T23:33:41.518Z,5.67
2019-03-05T23:36:10.856Z,4.63
2019-03-05T23:38:40.218Z,6.03
2019-03-05T23:41:09.549Z,6.73
2019-03-05T23:43:38.857Z,7.90
2019-03-05T23:46:08.309Z,10.07
2019-03-05T23:48:37.640Z,5.40
2019-03-05T23:51:06.988Z,5.50
2019-03-05T23:53:36.513Z,8.90
2019-03-05T23:56:05.811Z,9.10
2019-03-05T23:58:35.146Z,8.40
